Concerto — JJ3855 — position and weather

sailwx.info

Track history (hours):
 
Tides and Currents Weather Stations Pressure Air Temp Water Temp Dewpoint Dewpoint Depression Visibility Wind Speed Wind Dir Waves Ship Positions

Concerto

Last reported at 2016-Jul-28 13:27 UTC. Time now 2016-Jul-28 14:36 UTC.
Position N 34°41' E 135°11'.

Length 74 m; draft 3 m.

Type: Passenger vessel. MMSI: 431000448.

Date/timePositionNaut miles runAvg speedWind from/ knotsBaromVisibWave heightAir tempDewpointWater temp
2016-Jul-28 13:27N 34°41' E 135°11'0 0.0
2016-Jul-28 12:33N 34°41' E 135°11'3 3.3
2016-Jul-28 11:33N 34°38' E 135°10'1 0.8
2016-Jul-28 10:33N 34°38' E 135°09'3 3.0
2016-Jul-28 09:32N 34°41' E 135°11'5 5.2
2016-Jul-28 08:33N 34°37' E 135°07'5 5.0
2016-Jul-28 07:33N 34°41' E 135°11'2 2.5
2016-Jul-28 06:33N 34°38' E 135°11'2 2.4
2016-Jul-28 05:33N 34°41' E 135°11'2 1.8
2016-Jul-28 04:33N 34°39' E 135°11'2 2.0
2016-Jul-28 03:33N 34°38' E 135°09'3 2.6
2016-Jul-28 02:19N 34°41' E 135°11'0 0.0
2016-Jul-28 01:25N 34°41' E 135°11'0 0.0
2016-Jul-28 00:31N 34°41' E 135°11'0 0.0
2016-Jul-27 23:31N 34°41' E 135°11'0 0.0
2016-Jul-27 22:31N 34°41' E 135°11'0 0.0
2016-Jul-27 21:31N 34°41' E 135°11'0 0.0
2016-Jul-27 20:31N 34°41' E 135°11'0 0.0
2016-Jul-27 19:31N 34°41' E 135°11'0 0.0
2016-Jul-27 18:31N 34°41' E 135°11'0 0.0
2016-Jul-27 17:31N 34°41' E 135°11'0 0.0
2016-Jul-27 16:31N 34°41' E 135°11'0 0.0
2016-Jul-27 15:31N 34°41' E 135°11'0 0.0
2016-Jul-27 14:31N 34°41' E 135°11'0 0.0
2016-Jul-27 13:31N 34°41' E 135°11'0 0.0
2016-Jul-27 12:31N 34°41' E 135°11'3 3.6
2016-Jul-27 11:33N 34°38' E 135°10'1 0.6
2016-Jul-27 10:33N 34°38' E 135°10'3 2.8
2016-Jul-27 09:30N 34°41' E 135°11'5 5.2
2016-Jul-27 08:34N 34°37' E 135°07'5 4.5
2016-Jul-27 07:29N 34°41' E 135°11'3 2.8
2016-Jul-27 06:33N 34°38' E 135°11'3 2.6
2016-Jul-27 05:33N 34°41' E 135°11'2 2.0
2016-Jul-27 04:33N 34°39' E 135°11'1 1.4
2016-Jul-27 03:32N 34°38' E 135°10'3 2.8
2016-Jul-27 02:33N 34°41' E 135°11'3 0.2
2016-Jul-26 11:33N 34°38' E 135°10'0 0.5
2016-Jul-26 10:33N 34°38' E 135°10'3 2.8
2016-Jul-26 09:26N 34°41' E 135°11'5 5.4
2016-Jul-26 08:33N 34°37' E 135°08'5 4.8
2016-Jul-26 07:33N 34°41' E 135°11'2 1.9
2016-Jul-26 06:33N 34°39' E 135°11'2 1.9
2016-Jul-26 05:33N 34°41' E 135°11'2 2.0
2016-Jul-26 04:33N 34°39' E 135°11'1 1.3
2016-Jul-26 03:33N 34°38' E 135°10'3 2.9
2016-Jul-26 02:33N 34°41' E 135°11'0 0.0
2016-Jul-25 12:05N 34°41' E 135°11'3 6.0
2016-Jul-25 11:33N 34°38' E 135°10'1 0.8
2016-Jul-25 10:33N 34°38' E 135°09'3 2.9
2016-Jul-25 09:33N 34°41' E 135°11'5 4.6
2016-Jul-25 08:33N 34°37' E 135°07'5 4.3
2016-Jul-25 07:30N 34°41' E 135°11'3 2.7
2016-Jul-25 06:33N 34°38' E 135°11'3 2.5
2016-Jul-25 05:33N 34°41' E 135°11'2 1.7
2016-Jul-25 04:33N 34°39' E 135°11'2 2.4
2016-Jul-25 03:33N 34°38' E 135°09'3 3.2
2016-Jul-25 02:28N 34°41' E 135°11'3 0.2
2016-Jul-24 11:33N 34°38' E 135°10'0 0.3
2016-Jul-24 10:33N 34°38' E 135°09'3 2.9
2016-Jul-24 09:30N 34°41' E 135°11'5 5.1
2016-Jul-24 08:33N 34°37' E 135°08'5 4.8
2016-Jul-24 07:33N 34°41' E 135°11'2 2.0
2016-Jul-24 06:34N 34°39' E 135°11'2 1.9
2016-Jul-24 05:34N 34°41' E 135°11'1 1.5
2016-Jul-24 04:33N 34°39' E 135°11'2 2.5
2016-Jul-24 03:33N 34°38' E 135°09'4 3.1
2016-Jul-24 02:25N 34°41' E 135°11'0 0.0
2016-Jul-24 01:31N 34°41' E 135°11'0 0.0
2016-Jul-24 00:31N 34°41' E 135°11'0 0.0
2016-Jul-23 23:31N 34°41' E 135°11'0 0.0
2016-Jul-23 22:31N 34°41' E 135°11'0 0.0
2016-Jul-23 21:31N 34°41' E 135°11'0 0.0
2016-Jul-23 20:31N 34°41' E 135°11'0 0.0
2016-Jul-23 19:31N 34°41' E 135°11'0 0.0
2016-Jul-23 18:31N 34°41' E 135°11'0 0.0
2016-Jul-23 17:31N 34°41' E 135°11'0 0.0
2016-Jul-23 16:31N 34°41' E 135°11'0 0.0
2016-Jul-23 15:31N 34°41' E 135°11'0 0.0
2016-Jul-23 14:31N 34°41' E 135°11'0 0.0
2016-Jul-23 13:31N 34°41' E 135°11'0 0.0
2016-Jul-23 12:19N 34°41' E 135°11'3 4.4
2016-Jul-23 11:33N 34°38' E 135°09'0 0.2
2016-Jul-23 10:33N 34°38' E 135°09'3 2.9
2016-Jul-23 09:28N 34°41' E 135°11'5 5.3
2016-Jul-23 08:33N 34°38' E 135°07'5 4.9
2016-Jul-23 07:33N 34°41' E 135°11'2 1.9
2016-Jul-23 06:33N 34°39' E 135°11'1 0.5
2016-Jul-23 04:33N 34°40' E 135°12'3 2.8
2016-Jul-23 03:33N 34°38' E 135°09'3 3.4
2016-Jul-23 02:33N 34°41' E 135°11'0 0.0
2016-Jul-22 14:09N 34°41' E 135°11'0 0.0
2016-Jul-22 13:33N 34°41' E 135°11'0 0.0
2016-Jul-22 12:33N 34°41' E 135°11'3 3.5
2016-Jul-22 11:33N 34°38' E 135°09'0 0.1
2016-Jul-22 10:33N 34°38' E 135°09'3 3.2
2016-Jul-22 09:30N 34°41' E 135°11'5 5.2
2016-Jul-22 08:33N 34°37' E 135°07'5 4.9
2016-Jul-22 07:33N 34°41' E 135°11'0 0.0
2016-Jul-22 05:33N 34°41' E 135°11'2 1.7
2016-Jul-22 04:33N 34°39' E 135°11'2 2.1
2016-Jul-22 03:33N 34°38' E 135°09'3 3.4
2016-Jul-22 02:33N 34°41' E 135°11'0 0.0
2016-Jul-22 01:30N 34°41' E 135°11'0 0.0
2016-Jul-22 00:30N 34°41' E 135°11'0 0.0
2016-Jul-21 23:30N 34°41' E 135°11'0 0.0
2016-Jul-21 22:30N 34°41' E 135°11'0 0.0
2016-Jul-21 21:30N 34°41' E 135°11'0 0.0
2016-Jul-21 20:30N 34°41' E 135°11'0 0.0
2016-Jul-21 19:30N 34°41' E 135°11'0 0.0
2016-Jul-21 18:30N 34°41' E 135°11'0 0.0
2016-Jul-21 17:30N 34°41' E 135°11'0 0.0
2016-Jul-21 16:24N 34°41' E 135°11'0 0.0
2016-Jul-21 15:30N 34°41' E 135°11'0 0.0
2016-Jul-21 14:30N 34°41' E 135°11'0 0.0
2016-Jul-21 13:30N 34°41' E 135°11'0 0.0
2016-Jul-21 12:18N 34°41' E 135°11'4 5.8
2016-Jul-21 11:33N 34°37' E 135°08'1 0.9
2016-Jul-21 10:33N 34°38' E 135°09'3 3.3
2016-Jul-21 09:29N 34°41' E 135°11'5 5.3
2016-Jul-21 08:33N 34°37' E 135°07'5 4.7
2016-Jul-21 07:31N 34°41' E 135°11'2 2.2
2016-Jul-21 06:34N 34°39' E 135°11'2 2.1
2016-Jul-21 05:33N 34°41' E 135°11'2 1.6
2016-Jul-21 04:33N 34°39' E 135°11'2 1.9
2016-Jul-21 03:33N 34°38' E 135°10'3 2.9
2016-Jul-21 02:29N 34°41' E 135°11'0 0.0
2016-Jul-20 12:03N 34°41' E 135°11'3 6.4
2016-Jul-20 11:33N 34°38' E 135°10'1 0.6
2016-Jul-20 10:33N 34°38' E 135°09'3 2.9
2016-Jul-20 09:23N 34°41' E 135°11'5 6.0
2016-Jul-20 08:33N 34°37' E 135°07'5 4.9
2016-Jul-20 07:33N 34°41' E 135°11'2 2.3
2016-Jul-20 06:34N 34°38' E 135°11'2 2.3
2016-Jul-20 05:33N 34°41' E 135°11'2 2.0
2016-Jul-20 04:33N 34°39' E 135°11'2 1.7
2016-Jul-20 03:33N 34°38' E 135°09'3 3.1
2016-Jul-20 02:33N 34°41' E 135°11'0 0.0
2016-Jul-20 01:30N 34°41' E 135°11'0 0.0
2016-Jul-20 00:30N 34°41' E 135°11'0 0.0
2016-Jul-19 23:30N 34°41' E 135°11'0 0.0
2016-Jul-19 22:24N 34°41' E 135°11'0 0.0
2016-Jul-19 21:30N 34°41' E 135°11'0 0.0
2016-Jul-19 20:30N 34°41' E 135°11'0 0.0
2016-Jul-19 19:30N 34°41' E 135°11'0 0.0
2016-Jul-19 18:30N 34°41' E 135°11'0 0.0
2016-Jul-19 17:30N 34°41' E 135°11'0 0.0
2016-Jul-19 16:30N 34°41' E 135°11'0 0.0
2016-Jul-19 15:30N 34°41' E 135°11'0 0.0
2016-Jul-19 14:30N 34°41' E 135°11'0 0.0
2016-Jul-19 13:24N 34°41' E 135°11'0 0.0
2016-Jul-19 12:30N 34°41' E 135°11'3 3.5
2016-Jul-19 11:34N 34°38' E 135°10'1 1.0
2016-Jul-19 10:34N 34°38' E 135°09'3 3.3
2016-Jul-19 09:32N 34°41' E 135°11'5 5.0
2016-Jul-19 08:33N 34°37' E 135°07'5 4.9
2016-Jul-19 07:33N 34°41' E 135°11'2 0.7
2016-Jul-19 04:33N 34°39' E 135°11'2 1.6
2016-Jul-19 03:33N 34°38' E 135°10'3 2.6
2016-Jul-19 02:20N 34°41' E 135°11'0 0.0
2016-Jul-19 01:32N 34°41' E 135°11'0 0.0
2016-Jul-19 00:32N 34°41' E 135°11'0 0.0
2016-Jul-18 23:20N 34°41' E 135°11'0 0.0
2016-Jul-18 22:32N 34°41' E 135°11'0 0.0
2016-Jul-18 21:32N 34°41' E 135°11'0 0.0
2016-Jul-18 20:20N 34°41' E 135°11'0 0.0
2016-Jul-18 19:32N 34°41' E 135°11'0 0.0
2016-Jul-18 18:32N 34°41' E 135°11'0 0.0
2016-Jul-18 17:32N 34°41' E 135°11'0 0.0
2016-Jul-18 16:26N 34°41' E 135°11'0 0.0
2016-Jul-18 15:26N 34°41' E 135°11'0 0.0
2016-Jul-18 14:26N 34°41' E 135°11'0 0.0
2016-Jul-18 13:32N 34°41' E 135°11'  
Track history (hours):
 
Tides and Currents Weather Stations Pressure Air Temp Water Temp Dewpoint Dewpoint Depression Visibility Wind Speed Wind Dir Waves Ship Positions

Concerto

Last reported at 2016-Jul-28 13:27 UTC. Time now 2016-Jul-28 14:36 UTC.
Position N 34°41' E 135°11'.

Length 74 m; draft 3 m.

Type: Passenger vessel. MMSI: 431000448.

Date/timePositionNaut miles runAvg speedWind from/ knotsBaromVisibWave heightAir tempDewpointWater temp
2016-Jul-28 13:27N 34°41' E 135°11'0 0.0
2016-Jul-28 12:33N 34°41' E 135°11'3 3.3
2016-Jul-28 11:33N 34°38' E 135°10'1 0.8
2016-Jul-28 10:33N 34°38' E 135°09'3 3.0
2016-Jul-28 09:32N 34°41' E 135°11'5 5.2
2016-Jul-28 08:33N 34°37' E 135°07'5 5.0
2016-Jul-28 07:33N 34°41' E 135°11'2 2.5
2016-Jul-28 06:33N 34°38' E 135°11'2 2.4
2016-Jul-28 05:33N 34°41' E 135°11'2 1.8
2016-Jul-28 04:33N 34°39' E 135°11'2 2.0
2016-Jul-28 03:33N 34°38' E 135°09'3 2.6
2016-Jul-28 02:19N 34°41' E 135°11'0 0.0
2016-Jul-28 01:25N 34°41' E 135°11'0 0.0
2016-Jul-28 00:31N 34°41' E 135°11'0 0.0
2016-Jul-27 23:31N 34°41' E 135°11'0 0.0
2016-Jul-27 22:31N 34°41' E 135°11'0 0.0
2016-Jul-27 21:31N 34°41' E 135°11'0 0.0
2016-Jul-27 20:31N 34°41' E 135°11'0 0.0
2016-Jul-27 19:31N 34°41' E 135°11'0 0.0
2016-Jul-27 18:31N 34°41' E 135°11'0 0.0
2016-Jul-27 17:31N 34°41' E 135°11'0 0.0
2016-Jul-27 16:31N 34°41' E 135°11'0 0.0
2016-Jul-27 15:31N 34°41' E 135°11'0 0.0
2016-Jul-27 14:31N 34°41' E 135°11'0 0.0
2016-Jul-27 13:31N 34°41' E 135°11'0 0.0
2016-Jul-27 12:31N 34°41' E 135°11'3 3.6
2016-Jul-27 11:33N 34°38' E 135°10'1 0.6
2016-Jul-27 10:33N 34°38' E 135°10'3 2.8
2016-Jul-27 09:30N 34°41' E 135°11'5 5.2
2016-Jul-27 08:34N 34°37' E 135°07'5 4.5
2016-Jul-27 07:29N 34°41' E 135°11'3 2.8
2016-Jul-27 06:33N 34°38' E 135°11'3 2.6
2016-Jul-27 05:33N 34°41' E 135°11'2 2.0
2016-Jul-27 04:33N 34°39' E 135°11'1 1.4
2016-Jul-27 03:32N 34°38' E 135°10'3 2.8
2016-Jul-27 02:33N 34°41' E 135°11'3 0.2
2016-Jul-26 11:33N 34°38' E 135°10'0 0.5
2016-Jul-26 10:33N 34°38' E 135°10'3 2.8
2016-Jul-26 09:26N 34°41' E 135°11'5 5.4
2016-Jul-26 08:33N 34°37' E 135°08'5 4.8
2016-Jul-26 07:33N 34°41' E 135°11'2 1.9
2016-Jul-26 06:33N 34°39' E 135°11'2 1.9
2016-Jul-26 05:33N 34°41' E 135°11'2 2.0
2016-Jul-26 04:33N 34°39' E 135°11'1 1.3
2016-Jul-26 03:33N 34°38' E 135°10'3 2.9
2016-Jul-26 02:33N 34°41' E 135°11'0 0.0
2016-Jul-25 12:05N 34°41' E 135°11'3 6.0
2016-Jul-25 11:33N 34°38' E 135°10'1 0.8
2016-Jul-25 10:33N 34°38' E 135°09'3 2.9
2016-Jul-25 09:33N 34°41' E 135°11'5 4.6
2016-Jul-25 08:33N 34°37' E 135°07'5 4.3
2016-Jul-25 07:30N 34°41' E 135°11'3 2.7
2016-Jul-25 06:33N 34°38' E 135°11'3 2.5
2016-Jul-25 05:33N 34°41' E 135°11'2 1.7
2016-Jul-25 04:33N 34°39' E 135°11'2 2.4
2016-Jul-25 03:33N 34°38' E 135°09'3 3.2
2016-Jul-25 02:28N 34°41' E 135°11'3 0.2
2016-Jul-24 11:33N 34°38' E 135°10'0 0.3
2016-Jul-24 10:33N 34°38' E 135°09'3 2.9
2016-Jul-24 09:30N 34°41' E 135°11'5 5.1
2016-Jul-24 08:33N 34°37' E 135°08'5 4.8
2016-Jul-24 07:33N 34°41' E 135°11'2 2.0
2016-Jul-24 06:34N 34°39' E 135°11'2 1.9
2016-Jul-24 05:34N 34°41' E 135°11'1 1.5
2016-Jul-24 04:33N 34°39' E 135°11'2 2.5
2016-Jul-24 03:33N 34°38' E 135°09'4 3.1
2016-Jul-24 02:25N 34°41' E 135°11'0 0.0
2016-Jul-24 01:31N 34°41' E 135°11'0 0.0
2016-Jul-24 00:31N 34°41' E 135°11'0 0.0
2016-Jul-23 23:31N 34°41' E 135°11'0 0.0
2016-Jul-23 22:31N 34°41' E 135°11'0 0.0
2016-Jul-23 21:31N 34°41' E 135°11'0 0.0
2016-Jul-23 20:31N 34°41' E 135°11'0 0.0
2016-Jul-23 19:31N 34°41' E 135°11'0 0.0
2016-Jul-23 18:31N 34°41' E 135°11'0 0.0
2016-Jul-23 17:31N 34°41' E 135°11'0 0.0
2016-Jul-23 16:31N 34°41' E 135°11'0 0.0
2016-Jul-23 15:31N 34°41' E 135°11'0 0.0
2016-Jul-23 14:31N 34°41' E 135°11'0 0.0
2016-Jul-23 13:31N 34°41' E 135°11'0 0.0
2016-Jul-23 12:19N 34°41' E 135°11'3 4.4
2016-Jul-23 11:33N 34°38' E 135°09'0 0.2
2016-Jul-23 10:33N 34°38' E 135°09'3 2.9
2016-Jul-23 09:28N 34°41' E 135°11'5 5.3
2016-Jul-23 08:33N 34°38' E 135°07'5 4.9
2016-Jul-23 07:33N 34°41' E 135°11'2 1.9
2016-Jul-23 06:33N 34°39' E 135°11'1 0.5
2016-Jul-23 04:33N 34°40' E 135°12'3 2.8
2016-Jul-23 03:33N 34°38' E 135°09'3 3.4
2016-Jul-23 02:33N 34°41' E 135°11'0 0.0
2016-Jul-22 14:09N 34°41' E 135°11'0 0.0
2016-Jul-22 13:33N 34°41' E 135°11'0 0.0
2016-Jul-22 12:33N 34°41' E 135°11'3 3.5
2016-Jul-22 11:33N 34°38' E 135°09'0 0.1
2016-Jul-22 10:33N 34°38' E 135°09'3 3.2
2016-Jul-22 09:30N 34°41' E 135°11'5 5.2
2016-Jul-22 08:33N 34°37' E 135°07'5 4.9
2016-Jul-22 07:33N 34°41' E 135°11'0 0.0
2016-Jul-22 05:33N 34°41' E 135°11'2 1.7
2016-Jul-22 04:33N 34°39' E 135°11'2 2.1
2016-Jul-22 03:33N 34°38' E 135°09'3 3.4
2016-Jul-22 02:33N 34°41' E 135°11'0 0.0
2016-Jul-22 01:30N 34°41' E 135°11'0 0.0
2016-Jul-22 00:30N 34°41' E 135°11'0 0.0
2016-Jul-21 23:30N 34°41' E 135°11'0 0.0
2016-Jul-21 22:30N 34°41' E 135°11'0 0.0
2016-Jul-21 21:30N 34°41' E 135°11'0 0.0
2016-Jul-21 20:30N 34°41' E 135°11'0 0.0
2016-Jul-21 19:30N 34°41' E 135°11'0 0.0
2016-Jul-21 18:30N 34°41' E 135°11'0 0.0
2016-Jul-21 17:30N 34°41' E 135°11'0 0.0
2016-Jul-21 16:24N 34°41' E 135°11'0 0.0
2016-Jul-21 15:30N 34°41' E 135°11'0 0.0
2016-Jul-21 14:30N 34°41' E 135°11'0 0.0
2016-Jul-21 13:30N 34°41' E 135°11'0 0.0
2016-Jul-21 12:18N 34°41' E 135°11'4 5.8
2016-Jul-21 11:33N 34°37' E 135°08'1 0.9
2016-Jul-21 10:33N 34°38' E 135°09'3 3.3
2016-Jul-21 09:29N 34°41' E 135°11'5 5.3
2016-Jul-21 08:33N 34°37' E 135°07'5 4.7
2016-Jul-21 07:31N 34°41' E 135°11'2 2.2
2016-Jul-21 06:34N 34°39' E 135°11'2 2.1
2016-Jul-21 05:33N 34°41' E 135°11'2 1.6
2016-Jul-21 04:33N 34°39' E 135°11'2 1.9
2016-Jul-21 03:33N 34°38' E 135°10'3 2.9
2016-Jul-21 02:29N 34°41' E 135°11'0 0.0
2016-Jul-20 12:03N 34°41' E 135°11'3 6.4
2016-Jul-20 11:33N 34°38' E 135°10'1 0.6
2016-Jul-20 10:33N 34°38' E 135°09'3 2.9
2016-Jul-20 09:23N 34°41' E 135°11'5 6.0
2016-Jul-20 08:33N 34°37' E 135°07'5 4.9
2016-Jul-20 07:33N 34°41' E 135°11'2 2.3
2016-Jul-20 06:34N 34°38' E 135°11'2 2.3
2016-Jul-20 05:33N 34°41' E 135°11'2 2.0
2016-Jul-20 04:33N 34°39' E 135°11'2 1.7
2016-Jul-20 03:33N 34°38' E 135°09'3 3.1
2016-Jul-20 02:33N 34°41' E 135°11'0 0.0
2016-Jul-20 01:30N 34°41' E 135°11'0 0.0
2016-Jul-20 00:30N 34°41' E 135°11'0 0.0
2016-Jul-19 23:30N 34°41' E 135°11'0 0.0
2016-Jul-19 22:24N 34°41' E 135°11'0 0.0
2016-Jul-19 21:30N 34°41' E 135°11'0 0.0
2016-Jul-19 20:30N 34°41' E 135°11'0 0.0
2016-Jul-19 19:30N 34°41' E 135°11'0 0.0
2016-Jul-19 18:30N 34°41' E 135°11'0 0.0
2016-Jul-19 17:30N 34°41' E 135°11'0 0.0
2016-Jul-19 16:30N 34°41' E 135°11'0 0.0
2016-Jul-19 15:30N 34°41' E 135°11'0 0.0
2016-Jul-19 14:30N 34°41' E 135°11'0 0.0
2016-Jul-19 13:24N 34°41' E 135°11'0 0.0
2016-Jul-19 12:30N 34°41' E 135°11'3 3.5
2016-Jul-19 11:34N 34°38' E 135°10'1 1.0
2016-Jul-19 10:34N 34°38' E 135°09'3 3.3
2016-Jul-19 09:32N 34°41' E 135°11'5 5.0
2016-Jul-19 08:33N 34°37' E 135°07'5 4.9
2016-Jul-19 07:33N 34°41' E 135°11'2 0.7
2016-Jul-19 04:33N 34°39' E 135°11'2 1.6
2016-Jul-19 03:33N 34°38' E 135°10'3 2.6
2016-Jul-19 02:20N 34°41' E 135°11'0 0.0
2016-Jul-19 01:32N 34°41' E 135°11'0 0.0
2016-Jul-19 00:32N 34°41' E 135°11'0 0.0
2016-Jul-18 23:20N 34°41' E 135°11'0 0.0
2016-Jul-18 22:32N 34°41' E 135°11'0 0.0
2016-Jul-18 21:32N 34°41' E 135°11'0 0.0
2016-Jul-18 20:20N 34°41' E 135°11'0 0.0
2016-Jul-18 19:32N 34°41' E 135°11'0 0.0
2016-Jul-18 18:32N 34°41' E 135°11'0 0.0
2016-Jul-18 17:32N 34°41' E 135°11'0 0.0
2016-Jul-18 16:26N 34°41' E 135°11'0 0.0
2016-Jul-18 15:26N 34°41' E 135°11'0 0.0
2016-Jul-18 14:26N 34°41' E 135°11'0 0.0
2016-Jul-18 13:32N 34°41' E 135°11'  

Dump ship's entire track history